Time;durP1;ratioP1;P1;durP2;ratioP2;P2;SDS_P1;SDS_P2;PMS_P1;PMS_P2;Temp;Humidity;BMP_temperature;BMP_pressure;BME280_temperature;BME280_humidity;BME280_pressure;Samples;Min_cycle;Max_cycle;Signal;HPM_P1;HPM_P2
2021/05/23 00:00:50;;;;;;;17.45;9.35;;;10.00;99.90;;;;;;5094183;28;20111;-76
2021/05/23 00:03:17;;;;;;;16.60;10.00;;;10.00;99.90;;;;;;5094759;28;20063;-76
2021/05/23 00:05:44;;;;;;;15.27;10.13;;;10.00;99.90;;;;;;5093385;28;20050;-76
2021/05/23 00:08:13;;;;;;;13.70;9.45;;;10.00;99.90;;;;;;5094404;28;20397;-74
2021/05/23 00:10:58;;;;;;;22.73;11.02;;;10.00;99.90;;;;;;5094054;28;20021;-76
2021/05/23 00:13:26;;;;;;;15.35;10.52;;;9.90;99.90;;;;;;5093585;28;20024;-76
2021/05/23 00:16:17;;;;;;;15.38;10.13;;;9.90;99.90;;;;;;5093900;28;20418;-75
2021/05/23 00:18:45;;;;;;;15.52;10.93;;;9.90;99.90;;;;;;5094027;28;20084;-75
2021/05/23 00:21:13;;;;;;;19.50;10.32;;;9.90;99.90;;;;;;5093198;28;20020;-75
2021/05/23 00:23:39;;;;;;;18.80;11.07;;;9.90;99.90;;;;;;5093936;28;20591;-76
2021/05/23 00:26:05;;;;;;;20.52;12.27;;;9.90;99.90;;;;;;5075670;28;20111;-75
2021/05/23 00:28:31;;;;;;;15.77;10.13;;;9.90;99.90;;;;;;5093518;28;20051;-75
2021/05/23 00:30:59;;;;;;;16.67;10.73;;;9.90;99.90;;;;;;5094085;28;20411;-77
2021/05/23 00:33:24;;;;;;;17.63;11.35;;;9.90;99.90;;;;;;5094431;28;20024;-77
2021/05/23 00:35:50;;;;;;;24.55;12.60;;;9.90;99.90;;;;;;5095869;28;20066;-75
2021/05/23 00:38:16;;;;;;;22.77;11.63;;;9.90;99.90;;;;;;5095801;28;20021;-75
2021/05/23 00:40:42;;;;;;;22.63;12.32;;;9.80;99.90;;;;;;5093535;28;20066;-75
2021/05/23 00:43:10;;;;;;;16.83;11.27;;;9.80;99.90;;;;;;5095071;28;20468;-75
2021/05/23 00:45:36;;;;;;;21.73;11.73;;;9.80;99.90;;;;;;5105882;28;20036;-74
2021/05/23 00:48:03;;;;;;;15.40;11.40;;;9.90;99.90;;;;;;5107207;28;20495;-76
2021/05/23 00:50:28;;;;;;;20.35;12.88;;;9.80;99.90;;;;;;5113946;28;20058;-74
2021/05/23 00:52:55;;;;;;;16.95;10.98;;;9.80;99.90;;;;;;5101285;28;20428;-75
2021/05/23 00:55:22;;;;;;;18.13;12.00;;;9.80;99.90;;;;;;5092390;28;20111;-75
2021/05/23 00:57:51;;;;;;;18.35;11.57;;;9.80;99.90;;;;;;5092887;28;20480;-78
2021/05/23 01:00:45;;;;;;;15.88;12.45;;;9.80;99.90;;;;;;5095755;28;20122;-75
2021/05/23 01:03:29;;;;;;;20.20;12.57;;;9.80;99.90;;;;;;5099430;28;20103;-75
2021/05/23 01:05:57;;;;;;;20.25;12.73;;;9.80;99.90;;;;;;5092849;28;20020;-75
2021/05/23 01:08:24;;;;;;;21.80;12.57;;;9.80;99.90;;;;;;5092980;28;20480;-76
2021/05/23 01:11:27;;;;;;;21.48;12.75;;;9.80;99.90;;;;;;5092081;28;20032;-76
2021/05/23 01:13:59;;;;;;;17.65;11.65;;;9.80;99.90;;;;;;5092037;28;20027;-75
2021/05/23 01:17:00;;;;;;;22.08;12.55;;;9.70;99.90;;;;;;5091778;28;20016;-76
2021/05/23 01:19:48;;;;;;;26.35;12.18;;;9.70;99.90;;;;;;5079787;28;20089;-74
2021/05/23 01:22:35;;;;;;;21.77;12.95;;;9.70;99.90;;;;;;5092780;28;20032;-74
2021/05/23 01:25:14;;;;;;;22.70;12.15;;;9.70;99.90;;;;;;5099152;28;20024;-75
2021/05/23 01:27:45;;;;;;;26.70;14.30;;;9.70;99.90;;;;;;5092622;28;20024;-74
2021/05/23 01:30:26;;;;;;;22.70;14.07;;;9.70;99.90;;;;;;5091641;28;20384;-74
2021/05/23 01:32:56;;;;;;;22.52;14.18;;;9.70;99.90;;;;;;5092180;28;20028;-74
2021/05/23 01:35:31;;;;;;;22.65;14.50;;;9.70;99.90;;;;;;5091905;28;20089;-75
2021/05/23 01:38:01;;;;;;;23.73;14.18;;;9.80;99.90;;;;;;5091435;28;20102;-75
2021/05/23 01:40:30;;;;;;;23.60;13.80;;;9.70;99.90;;;;;;5104041;28;20028;-76
2021/05/23 01:42:56;;;;;;;19.53;13.53;;;9.70;99.90;;;;;;5093697;28;20034;-76
2021/05/23 01:45:22;;;;;;;23.30;13.18;;;9.70;99.90;;;;;;5091635;28;20106;-76
2021/05/23 01:47:49;;;;;;;22.15;13.40;;;9.70;99.90;;;;;;5091804;28;20054;-76
2021/05/23 01:50:14;;;;;;;22.25;13.80;;;9.70;99.90;;;;;;5091871;28;20030;-76
2021/05/23 01:52:53;;;;;;;18.10;13.98;;;9.60;99.90;;;;;;5091365;28;20016;-75
2021/05/23 01:55:20;;;;;;;24.10;16.23;;;9.60;99.90;;;;;;5092942;28;20472;-75
2021/05/23 01:57:46;;;;;;;24.13;15.23;;;9.60;99.90;;;;;;5093452;28;20070;-75
2021/05/23 02:00:13;;;;;;;24.48;15.93;;;9.60;99.90;;;;;;5091422;28;20028;-76
2021/05/23 02:02:38;;;;;;;27.42;16.65;;;9.60;99.90;;;;;;5092287;28;20426;-75
2021/05/23 02:05:06;;;;;;;20.70;15.52;;;9.60;99.90;;;;;;5091252;28;20028;-75
2021/05/23 02:07:31;;;;;;;24.35;15.82;;;9.60;99.90;;;;;;5092857;28;20016;-75
2021/05/23 02:09:58;;;;;;;23.48;15.88;;;9.60;99.90;;;;;;5111084;28;20442;-76
2021/05/23 02:12:24;;;;;;;26.20;17.08;;;9.60;99.90;;;;;;5111448;28;20016;-76
2021/05/23 02:14:50;;;;;;;28.55;17.70;;;9.60;99.90;;;;;;5101475;28;20042;-75
2021/05/23 02:17:15;;;;;;;29.58;17.60;;;9.60;99.90;;;;;;5112511;28;20020;-75
2021/05/23 02:19:46;;;;;;;20.92;15.68;;;9.60;99.90;;;;;;5106886;28;20030;-75
2021/05/23 02:22:12;;;;;;;23.67;17.70;;;9.70;99.90;;;;;;5116740;28;20060;-75
2021/05/23 02:24:38;;;;;;;20.52;16.55;;;9.60;99.90;;;;;;5116524;28;20059;-76
2021/05/23 02:27:03;;;;;;;22.88;17.65;;;9.70;99.90;;;;;;5100680;28;20073;-76
2021/05/23 02:29:32;;;;;;;22.67;17.77;;;9.60;99.90;;;;;;5116832;28;20019;-76
2021/05/23 02:31:57;;;;;;;27.75;18.17;;;9.60;99.90;;;;;;5115755;28;20111;-73
2021/05/23 02:34:27;;;;;;;28.90;17.50;;;9.60;99.90;;;;;;5115589;28;20130;-74
2021/05/23 02:36:53;;;;;;;24.27;17.63;;;9.70;99.90;;;;;;5116330;28;20027;-75
2021/05/23 02:39:20;;;;;;;26.65;18.13;;;9.70;99.90;;;;;;5116676;28;20016;-75
2021/05/23 02:41:46;;;;;;;26.02;19.73;;;9.70;99.90;;;;;;5115816;28;20069;-75
2021/05/23 02:44:11;;;;;;;29.83;19.30;;;9.80;99.90;;;;;;5101728;28;20016;-77
2021/05/23 02:46:38;;;;;;;29.58;19.45;;;9.70;99.90;;;;;;5116169;28;20016;-76
2021/05/23 02:49:03;;;;;;;32.10;20.45;;;9.80;99.90;;;;;;5115484;28;20028;-76
2021/05/23 02:51:29;;;;;;;24.23;19.05;;;9.80;99.90;;;;;;5116133;28;20012;-74
2021/05/23 02:53:55;;;;;;;25.40;18.92;;;9.80;99.90;;;;;;5115607;28;20139;-75
2021/05/23 02:56:20;;;;;;;25.27;20.45;;;9.90;99.90;;;;;;5115342;28;20068;-75
2021/05/23 02:58:46;;;;;;;27.13;19.92;;;10.30;99.90;;;;;;5115739;28;20027;-75
2021/05/23 03:01:11;;;;;;;26.35;21.25;;;9.90;99.90;;;;;;5114726;28;20479;-75
2021/05/23 03:03:37;;;;;;;29.08;21.15;;;9.90;99.90;;;;;;5115967;28;20023;-76
2021/05/23 03:06:03;;;;;;;30.08;21.13;;;9.80;99.90;;;;;;5115580;28;20360;-75
2021/05/23 03:08:28;;;;;;;31.60;23.77;;;9.90;99.90;;;;;;5115040;28;20495;-74
2021/05/23 03:10:54;;;;;;;34.10;22.75;;;9.90;99.90;;;;;;5115580;28;20050;-74
2021/05/23 03:13:21;;;;;;;35.55;22.55;;;9.90;99.90;;;;;;5118569;28;20015;-77
2021/05/23 03:15:47;;;;;;;30.25;22.33;;;9.90;99.90;;;;;;5118777;28;20035;-76
2021/05/23 03:18:12;;;;;;;30.38;20.65;;;9.90;99.90;;;;;;5101502;28;20027;-77
2021/05/23 03:20:40;;;;;;;29.05;20.00;;;9.90;99.90;;;;;;5115455;28;20084;-76
2021/05/23 03:23:06;;;;;;;27.02;18.80;;;9.90;99.90;;;;;;5114631;28;20072;-76
2021/05/23 03:25:32;;;;;;;27.90;19.20;;;10.00;99.90;;;;;;5115290;28;20106;-76
2021/05/23 03:27:58;;;;;;;28.55;18.98;;;10.00;99.90;;;;;;5115082;28;20110;-75
2021/05/23 03:30:44;;;;;;;30.70;19.70;;;10.00;99.90;;;;;;5114376;28;20556;-75
2021/05/23 03:33:11;;;;;;;30.27;19.20;;;10.10;99.90;;;;;;5114130;28;20509;-75
2021/05/23 03:35:37;;;;;;;32.95;20.80;;;10.10;99.90;;;;;;5114677;28;20131;-75
2021/05/23 03:38:06;;;;;;;27.17;19.33;;;10.10;99.90;;;;;;5113996;28;20431;-74
2021/05/23 03:40:35;;;;;;;25.65;16.65;;;10.10;99.90;;;;;;5114868;28;20173;-75
2021/05/23 03:43:01;;;;;;;8.82;7.30;;;10.10;99.90;;;;;;5114799;28;20057;-74
2021/05/23 03:45:27;;;;;;;8.95;8.05;;;10.10;99.90;;;;;;5114124;28;20031;-75
2021/05/23 03:47:53;;;;;;;11.68;10.40;;;10.00;99.90;;;;;;5114763;28;20020;-75
2021/05/23 03:50:21;;;;;;;11.25;10.00;;;10.00;99.90;;;;;;5115099;28;20023;-74
2021/05/23 03:52:48;;;;;;;15.10;10.88;;;10.00;99.90;;;;;;5114942;28;20555;-75
2021/05/23 03:55:14;;;;;;;11.48;10.30;;;10.00;99.90;;;;;;5114753;28;20066;-74
2021/05/23 03:57:39;;;;;;;14.43;11.25;;;10.00;99.90;;;;;;5114151;28;20462;-73
2021/05/23 04:00:07;;;;;;;18.77;11.65;;;9.90;99.90;;;;;;5114452;28;20043;-74
2021/05/23 04:02:32;;;;;;;15.45;11.25;;;10.00;99.90;;;;;;5114276;28;20480;-74
2021/05/23 04:04:58;;;;;;;16.25;10.60;;;9.90;99.90;;;;;;5113734;28;20028;-74
2021/05/23 04:07:26;;;;;;;13.68;11.13;;;10.00;99.90;;;;;;5100146;28;20443;-74
2021/05/23 04:09:53;;;;;;;12.40;10.38;;;10.00;99.90;;;;;;5114322;28;20081;-74
2021/05/23 04:12:26;;;;;;;12.52;10.07;;;9.90;99.90;;;;;;5114001;28;20034;-73
2021/05/23 04:14:52;;;;;;;14.10;10.80;;;10.00;99.90;;;;;;5113945;28;20036;-76
2021/05/23 04:17:17;;;;;;;18.88;11.35;;;10.00;99.90;;;;;;5106538;28;20016;-74
2021/05/23 04:19:43;;;;;;;17.33;12.45;;;10.00;99.90;;;;;;5107357;28;20035;-75
2021/05/23 04:22:09;;;;;;;16.17;12.32;;;10.00;99.90;;;;;;5114196;28;20026;-74
2021/05/23 04:24:38;;;;;;;16.00;12.18;;;10.00;99.90;;;;;;5114907;28;20028;-73
2021/05/23 04:27:04;;;;;;;18.20;12.90;;;10.00;99.90;;;;;;5113197;28;20022;-74
2021/05/23 04:29:32;;;;;;;16.55;13.65;;;10.00;99.90;;;;;;5114249;28;20070;-74
2021/05/23 04:31:59;;;;;;;20.63;15.90;;;10.10;99.90;;;;;;5113618;28;20019;-74
2021/05/23 04:34:25;;;;;;;22.05;16.55;;;10.10;99.90;;;;;;5113338;28;20051;-74
2021/05/23 04:36:53;;;;;;;23.63;16.77;;;10.10;99.90;;;;;;5113248;28;20027;-74
2021/05/23 04:39:19;;;;;;;25.80;18.50;;;10.10;99.90;;;;;;5114346;28;20397;-74
2021/05/23 04:41:45;;;;;;;42.85;23.15;;;10.10;99.90;;;;;;5100677;28;20020;-74
2021/05/23 04:44:10;;;;;;;38.00;23.30;;;10.20;99.90;;;;;;5112501;28;20417;-74
2021/05/23 04:46:36;;;;;;;39.05;24.15;;;10.10;99.90;;;;;;5113752;28;20027;-75
2021/05/23 04:49:02;;;;;;;33.97;21.92;;;10.20;99.90;;;;;;5113309;28;20387;-74
2021/05/23 04:51:27;;;;;;;37.50;21.85;;;10.20;99.90;;;;;;5113837;28;20028;-74
2021/05/23 04:53:53;;;;;;;40.35;19.85;;;10.20;99.90;;;;;;5113611;28;20407;-74
2021/05/23 04:56:19;;;;;;;37.10;20.23;;;10.30;99.90;;;;;;5113968;28;20042;-74
2021/05/23 04:58:44;;;;;;;28.33;18.17;;;10.30;99.90;;;;;;5113672;28;20435;-75
2021/05/23 05:01:10;;;;;;;39.17;17.10;;;10.40;99.90;;;;;;5112370;28;20026;-74
2021/05/23 05:03:35;;;;;;;33.25;15.77;;;10.40;99.90;;;;;;5106205;28;20020;-75
2021/05/23 05:06:01;;;;;;;35.63;15.10;;;10.40;99.90;;;;;;5114165;28;20532;-74
2021/05/23 05:08:27;;;;;;;32.50;13.98;;;10.50;99.90;;;;;;5112783;28;20471;-75
2021/05/23 05:10:52;;;;;;;33.22;12.68;;;10.50;99.90;;;;;;5113044;28;20011;-75
2021/05/23 05:13:18;;;;;;;20.92;11.98;;;10.50;99.90;;;;;;5113470;28;20047;-76
2021/05/23 05:15:44;;;;;;;22.88;11.40;;;10.60;99.90;;;;;;5112412;28;20043;-76
2021/05/23 05:18:09;;;;;;;22.85;10.52;;;10.70;99.90;;;;;;5098185;28;20388;-75
2021/05/23 05:20:39;;;;;;;24.92;11.10;;;10.60;99.90;;;;;;5112905;28;20050;-73
2021/05/23 05:23:04;;;;;;;27.95;10.80;;;10.60;99.90;;;;;;5112039;28;20030;-75
2021/05/23 05:25:30;;;;;;;23.27;10.73;;;10.70;99.90;;;;;;5100160;28;20019;-75
2021/05/23 05:27:55;;;;;;;24.52;9.88;;;10.70;99.90;;;;;;5099409;27;20020;-74
2021/05/23 05:30:21;;;;;;;21.15;8.45;;;10.70;99.90;;;;;;5100616;27;20026;-75
2021/05/23 05:32:47;;;;;;;18.27;7.53;;;10.70;99.90;;;;;;5098375;27;20019;-76
2021/05/23 05:35:13;;;;;;;18.50;6.25;;;10.70;99.90;;;;;;5099480;27;20058;-75
2021/05/23 05:37:41;;;;;;;16.05;5.68;;;10.80;99.90;;;;;;5093866;28;20016;-74
2021/05/23 05:40:07;;;;;;;18.58;5.82;;;10.90;99.90;;;;;;5095068;27;20032;-75
2021/05/23 05:42:33;;;;;;;25.42;5.55;;;11.00;99.90;;;;;;5074190;28;20016;-75
2021/05/23 05:44:58;;;;;;;16.27;4.80;;;11.10;99.90;;;;;;5098858;27;20165;-75
2021/05/23 05:47:26;;;;;;;11.90;4.47;;;11.10;99.90;;;;;;5100684;27;20034;-75
2021/05/23 05:49:52;;;;;;;16.35;5.13;;;11.10;99.90;;;;;;5091616;28;20085;-76
2021/05/23 05:52:18;;;;;;;17.17;4.82;;;11.10;99.90;;;;;;5096033;27;20021;-75
2021/05/23 05:54:43;;;;;;;18.77;3.90;;;11.20;99.90;;;;;;5097736;28;20036;-75
2021/05/23 05:57:09;;;;;;;18.38;4.40;;;11.10;99.90;;;;;;5096621;28;20039;-75
2021/05/23 05:59:34;;;;;;;6.97;4.40;;;11.10;99.90;;;;;;5092453;28;20028;-76
2021/05/23 06:02:00;;;;;;;14.73;3.85;;;11.10;99.90;;;;;;5096128;27;20074;-76
2021/05/23 06:04:25;;;;;;;16.10;4.32;;;11.00;99.90;;;;;;5093542;28;20036;-76
2021/05/23 06:06:51;;;;;;;19.25;3.92;;;11.10;99.90;;;;;;5091782;27;20081;-75
2021/05/23 06:09:17;;;;;;;14.93;3.85;;;11.10;99.90;;;;;;5100513;28;20060;-76
2021/05/23 06:11:42;;;;;;;10.55;3.47;;;11.10;99.90;;;;;;5097325;28;20495;-74
2021/05/23 06:14:08;;;;;;;16.77;3.63;;;11.10;99.90;;;;;;5082959;28;20027;-74
2021/05/23 06:16:33;;;;;;;13.55;3.35;;;11.20;99.90;;;;;;5112642;28;20031;-75
2021/05/23 06:18:59;;;;;;;22.38;4.28;;;11.20;99.90;;;;;;5108813;28;20034;-75
2021/05/23 06:21:24;;;;;;;17.52;3.97;;;11.30;99.90;;;;;;5112442;28;20024;-77
2021/05/23 06:23:50;;;;;;;12.20;3.88;;;11.40;99.90;;;;;;5112312;28;20110;-76
2021/05/23 06:26:15;;;;;;;17.48;3.78;;;11.50;99.90;;;;;;5100507;28;20035;-75
2021/05/23 06:28:42;;;;;;;14.55;4.07;;;11.50;99.90;;;;;;5109603;28;20103;-75
2021/05/23 06:31:08;;;;;;;9.60;4.05;;;11.50;99.90;;;;;;5111898;28;20112;-75
2021/05/23 06:33:34;;;;;;;18.00;3.90;;;11.60;99.90;;;;;;5111129;28;20035;-75
2021/05/23 06:36:00;;;;;;;17.05;4.00;;;11.50;99.90;;;;;;5111520;28;20519;-74
2021/05/23 06:38:25;;;;;;;16.17;3.90;;;11.50;99.90;;;;;;5112224;28;20380;-76
2021/05/23 06:40:51;;;;;;;13.98;3.42;;;11.40;99.90;;;;;;5110971;28;20102;-76
2021/05/23 06:43:17;;;;;;;11.82;3.60;;;11.30;99.90;;;;;;5112251;28;20047;-76
2021/05/23 06:45:43;;;;;;;18.63;3.97;;;11.30;99.90;;;;;;5112487;28;20043;-76
2021/05/23 06:48:09;;;;;;;10.40;3.35;;;11.40;99.90;;;;;;5111390;28;20077;-75
2021/05/23 06:50:35;;;;;;;19.88;4.07;;;11.50;99.90;;;;;;5112306;28;20024;-75
2021/05/23 06:53:01;;;;;;;10.00;3.78;;;11.60;99.90;;;;;;5107207;28;20097;-75
2021/05/23 06:55:27;;;;;;;13.43;3.35;;;11.80;99.90;;;;;;5110141;28;20130;-75
2021/05/23 06:57:52;;;;;;;15.18;3.80;;;11.90;99.90;;;;;;5120849;28;20027;-77
2021/05/23 07:00:19;;;;;;;12.48;3.28;;;12.00;99.90;;;;;;5120439;27;20019;-76
2021/05/23 07:02:45;;;;;;;11.68;3.55;;;12.20;99.90;;;;;;5125514;27;20390;-75
2021/05/23 07:05:11;;;;;;;15.90;3.50;;;12.30;99.90;;;;;;5128574;27;20509;-76
2021/05/23 07:07:37;;;;;;;7.47;3.08;;;12.40;99.90;;;;;;5125440;27;20036;-76
2021/05/23 07:10:03;;;;;;;9.57;3.63;;;12.30;99.90;;;;;;5128669;27;20079;-76
2021/05/23 07:12:29;;;;;;;13.60;4.32;;;12.20;99.90;;;;;;5121173;27;20016;-76
2021/05/23 07:14:54;;;;;;;9.13;3.13;;;12.10;99.90;;;;;;5127490;27;20479;-77
2021/05/23 07:17:20;;;;;;;8.60;3.38;;;12.10;99.90;;;;;;5112751;27;20020;-77
2021/05/23 07:19:46;;;;;;;10.98;3.58;;;12.20;99.90;;;;;;5109797;28;20134;-78
2021/05/23 07:22:11;;;;;;;15.05;4.45;;;12.20;99.90;;;;;;5114961;28;20016;-76
2021/05/23 07:24:37;;;;;;;10.77;3.60;;;12.30;99.90;;;;;;5115972;28;20031;-75
2021/05/23 07:27:03;;;;;;;13.00;4.55;;;12.30;99.90;;;;;;5111978;27;20077;-76
2021/05/23 07:29:28;;;;;;;14.48;4.22;;;12.30;99.90;;;;;;5099759;27;20024;-76
2021/05/23 07:31:54;;;;;;;9.98;3.20;;;12.40;99.90;;;;;;5103335;27;20468;-77
2021/05/23 07:34:19;;;;;;;10.13;3.22;;;12.50;99.90;;;;;;5099703;27;20044;-77
2021/05/23 07:36:48;;;;;;;9.77;3.58;;;12.60;99.90;;;;;;5109967;27;20383;-76
2021/05/23 07:39:14;;;;;;;8.27;2.58;;;12.80;99.90;;;;;;5107827;27;20068;-77
2021/05/23 07:41:40;;;;;;;11.05;2.80;;;13.00;99.90;;;;;;5113165;27;20392;-77
2021/05/23 07:44:05;;;;;;;11.48;2.80;;;13.00;99.90;;;;;;5113667;27;20068;-77
2021/05/23 07:46:31;;;;;;;13.63;4.68;;;13.10;99.90;;;;;;5113596;27;20526;-77
2021/05/23 07:48:57;;;;;;;8.85;2.92;;;13.20;99.90;;;;;;5114815;27;20052;-77
2021/05/23 07:51:22;;;;;;;10.85;2.92;;;13.20;99.90;;;;;;5121143;27;20394;-77
2021/05/23 07:53:48;;;;;;;8.30;2.95;;;13.20;99.90;;;;;;5110364;27;20109;-77
2021/05/23 07:56:13;;;;;;;11.75;2.53;;;13.10;99.90;;;;;;5121421;27;20023;-77
2021/05/23 07:58:39;;;;;;;6.88;1.80;;;13.10;99.90;;;;;;5113071;27;20020;-76
2021/05/23 08:01:04;;;;;;;4.70;1.30;;;13.00;99.90;;;;;;5118200;27;20027;-77
2021/05/23 08:03:30;;;;;;;4.88;1.30;;;13.00;99.90;;;;;;5117132;27;20012;-78
2021/05/23 08:05:56;;;;;;;3.53;1.27;;;13.00;99.90;;;;;;5116338;27;20024;-76
2021/05/23 08:08:22;;;;;;;4.88;1.77;;;12.90;99.90;;;;;;5098407;27;20055;-78
2021/05/23 08:10:47;;;;;;;8.30;1.92;;;13.00;99.90;;;;;;5097048;27;20024;-77
2021/05/23 08:13:13;;;;;;;8.70;1.63;;;13.00;99.90;;;;;;5103982;27;20107;-77
2021/05/23 08:15:41;;;;;;;5.63;1.83;;;12.50;99.90;;;;;;5099912;27;20035;-76
2021/05/23 08:18:08;;;;;;;10.18;1.80;;;13.10;99.90;;;;;;5113642;27;20088;-78
2021/05/23 08:20:33;;;;;;;4.57;1.92;;;13.10;99.90;;;;;;5114893;28;20052;-77
2021/05/23 08:22:59;;;;;;;10.88;2.78;;;13.20;99.90;;;;;;5114987;28;20022;-76
2021/05/23 08:25:24;;;;;;;8.93;2.17;;;13.20;99.90;;;;;;5114179;28;20504;-77
2021/05/23 08:27:50;;;;;;;11.75;2.53;;;13.20;99.90;;;;;;5114134;28;20035;-73
2021/05/23 08:30:16;;;;;;;10.73;2.75;;;13.20;99.90;;;;;;5113562;27;20058;-74
2021/05/23 08:32:42;;;;;;;7.40;2.33;;;13.20;99.90;;;;;;5103425;27;20023;-76
2021/05/23 08:35:10;;;;;;;6.22;2.90;;;13.20;99.90;;;;;;5098761;27;20040;-76
2021/05/23 08:37:36;;;;;;;9.32;2.22;;;13.20;99.90;;;;;;5106925;27;20020;-76
2021/05/23 08:40:06;;;;;;;14.20;2.60;;;13.30;99.90;;;;;;5101945;27;20019;-77
2021/05/23 08:42:33;;;;;;;12.90;2.08;;;13.30;99.90;;;;;;5096154;27;20024;-77
2021/05/23 08:44:59;;;;;;;6.03;2.20;;;13.40;99.90;;;;;;5105842;27;20097;-77
2021/05/23 08:47:25;;;;;;;6.35;2.17;;;13.50;99.90;;;;;;5104209;27;20019;-76
2021/05/23 08:49:51;;;;;;;10.27;2.40;;;13.60;99.90;;;;;;5103544;27;20035;-77
2021/05/23 08:52:19;;;;;;;13.43;2.03;;;13.60;99.90;;;;;;5111993;27;20054;-79
2021/05/23 08:54:45;;;;;;;5.95;2.25;;;13.50;99.90;;;;;;5101597;27;20036;-76
2021/05/23 08:57:11;;;;;;;6.25;1.80;;;13.50;99.90;;;;;;5105692;27;20023;-76
2021/05/23 08:59:38;;;;;;;9.77;2.35;;;13.60;99.90;;;;;;5107148;27;20040;-76
2021/05/23 09:02:08;;;;;;;8.48;2.38;;;13.50;99.90;;;;;;5102986;28;20102;-76
2021/05/23 09:04:34;;;;;;;6.13;2.10;;;13.60;99.90;;;;;;5107615;27;20077;-76
2021/05/23 09:07:04;;;;;;;5.60;1.65;;;13.70;99.90;;;;;;5103675;28;20032;-76
2021/05/23 09:09:40;;;;;;;6.63;2.10;;;13.80;99.90;;;;;;5104399;27;20468;-76
2021/05/23 09:12:08;;;;;;;6.22;2.20;;;13.90;99.90;;;;;;5112686;27;20046;-76
2021/05/23 09:14:36;;;;;;;8.43;2.30;;;13.90;99.90;;;;;;5108698;27;20440;-77
2021/05/23 09:17:04;;;;;;;7.70;2.15;;;14.10;99.90;;;;;;5103529;27;20128;-77
2021/05/23 09:19:39;;;;;;;11.35;2.53;;;14.10;99.90;;;;;;5099818;28;20107;-76
2021/05/23 09:22:14;;;;;;;6.88;2.50;;;14.30;99.90;;;;;;5097114;27;20035;-77
2021/05/23 09:24:57;;;;;;;7.93;2.47;;;14.30;99.90;;;;;;5101469;27;20111;-75
2021/05/23 09:27:27;;;;;;;10.82;3.67;;;14.30;99.90;;;;;;5101047;27;20111;-76
2021/05/23 09:30:10;;;;;;;6.07;2.83;;;14.40;99.90;;;;;;5103597;28;20139;-75
2021/05/23 09:32:37;;;;;;;7.93;2.22;;;14.40;99.90;;;;;;5098552;28;20126;-76
2021/05/23 09:35:07;;;;;;;7.97;2.58;;;14.40;99.90;;;;;;5103073;27;20523;-76
2021/05/23 09:37:33;;;;;;;8.07;2.88;;;14.50;99.90;;;;;;5099940;27;20028;-75
2021/05/23 09:40:00;;;;;;;4.28;1.77;;;14.60;99.90;;;;;;5098591;27;20043;-76
2021/05/23 09:42:26;;;;;;;4.68;1.98;;;14.60;99.90;;;;;;5099897;27;20035;-77
2021/05/23 09:44:56;;;;;;;3.95;1.90;;;14.60;99.90;;;;;;5102353;27;20023;-77
2021/05/23 09:47:22;;;;;;;;;;;14.50;99.90;;;;;;5104202;27;20077;-77
2021/05/23 09:49:56;;;;;;;6.13;1.40;;;14.50;99.90;;;;;;5100786;28;20059;-77
2021/05/23 09:52:32;;;;;;;10.55;1.38;;;14.30;99.90;;;;;;5103072;28;20016;-77
2021/05/23 09:55:01;;;;;;;7.50;1.30;;;14.20;99.90;;;;;;5095281;28;20040;-76
2021/05/23 09:57:28;;;;;;;6.00;1.50;;;14.20;99.90;;;;;;5097978;27;20372;-77
2021/05/23 10:00:04;;;;;;;6.15;1.20;;;14.10;99.90;;;;;;5097799;27;20020;-77
2021/05/23 10:02:30;;;;;;;3.15;1.40;;;14.10;99.90;;;;;;5101477;27;20019;-76
2021/05/23 10:05:04;;;;;;;4.30;1.50;;;14.10;99.90;;;;;;5095197;28;20103;-77
2021/05/23 10:07:34;;;;;;;8.02;1.15;;;14.00;99.90;;;;;;5100958;28;20031;-77
2021/05/23 10:10:01;;;;;;;3.40;1.23;;;13.80;99.90;;;;;;5095177;28;20490;-77
2021/05/23 10:12:27;;;;;;;3.90;1.40;;;13.80;99.90;;;;;;5096459;28;20023;-77
2021/05/23 10:14:52;;;;;;;6.03;1.85;;;13.70;99.90;;;;;;5101574;28;20495;-77
2021/05/23 10:17:20;;;;;;;2.78;1.40;;;13.90;99.90;;;;;;5094932;28;20027;-75
2021/05/23 10:19:46;;;;;;;2.58;1.38;;;14.00;99.90;;;;;;5099361;28;20028;-78
2021/05/23 10:22:15;;;;;;;4.90;1.20;;;14.20;99.90;;;;;;5098629;28;20464;-76
2021/05/23 10:24:49;;;;;;;6.32;1.65;;;14.40;99.90;;;;;;5095559;28;20110;-76
2021/05/23 10:27:22;;;;;;;3.58;1.10;;;14.40;99.40;;;;;;5101189;28;20125;-77
2021/05/23 10:29:56;;;;;;;4.78;1.17;;;14.60;99.00;;;;;;5099458;28;20020;-77
2021/05/23 10:32:28;;;;;;;1.45;0.80;;;14.60;99.10;;;;;;5098499;28;20042;-77
2021/05/23 10:34:55;;;;;;;2.83;0.95;;;14.70;98.60;;;;;;5097716;28;20050;-76
2021/05/23 10:37:29;;;;;;;2.53;1.23;;;14.70;97.00;;;;;;5108498;27;20024;-77
2021/05/23 10:39:58;;;;;;;2.53;1.20;;;14.60;97.90;;;;;;5103999;27;20097;-77
2021/05/23 10:42:28;;;;;;;5.28;1.08;;;14.60;95.60;;;;;;5113879;27;20041;-77
2021/05/23 10:44:56;;;;;;;4.53;1.50;;;14.60;95.80;;;;;;5114051;27;20475;-76
2021/05/23 10:47:22;;;;;;;6.38;0.77;;;14.70;94.50;;;;;;5109464;27;20034;-76
2021/05/23 10:50:00;;;;;;;3.97;1.75;;;14.70;94.10;;;;;;5109559;27;20027;-76
2021/05/23 10:52:28;;;;;;;4.90;1.08;;;14.60;94.60;;;;;;5111581;27;20027;-76
2021/05/23 10:55:07;;;;;;;6.38;1.27;;;14.60;94.20;;;;;;5115507;27;20439;-76
2021/05/23 10:57:43;;;;;;;3.90;1.20;;;14.60;94.80;;;;;;5102914;28;20458;-77
2021/05/23 11:00:10;;;;;;;3.72;1.00;;;14.60;94.00;;;;;;5106431;28;20084;-77
2021/05/23 11:02:43;;;;;;;5.20;1.38;;;14.70;94.80;;;;;;5110088;27;20074;-76
2021/05/23 11:05:23;;;;;;;9.32;1.67;;;14.80;95.40;;;;;;5099991;27;20024;-76
2021/05/23 11:08:03;;;;;;;3.95;0.98;;;15.00;95.00;;;;;;5114292;27;20024;-77
2021/05/23 11:10:46;;;;;;;4.13;1.30;;;15.10;93.60;;;;;;5114764;27;20036;-77
2021/05/23 11:13:26;;;;;;;2.20;1.20;;;15.20;94.30;;;;;;5113107;27;20273;-76
2021/05/23 11:15:58;;;;;;;3.75;1.27;;;15.10;92.40;;;;;;5097834;27;20080;-74
2021/05/23 11:18:29;;;;;;;3.08;1.20;;;15.00;92.00;;;;;;5097695;28;20043;-76
2021/05/23 11:21:00;;;;;;;2.67;1.05;;;15.00;91.20;;;;;;5096752;27;20153;-77
2021/05/23 11:23:27;;;;;;;13.57;1.40;;;15.00;92.40;;;;;;5101863;28;20020;-75
2021/05/23 11:26:23;;;;;;;4.93;1.27;;;15.00;93.20;;;;;;5109489;28;20100;-76
2021/05/23 11:28:53;;;;;;;6.18;1.48;;;15.00;94.60;;;;;;5088377;27;20023;-75
2021/05/23 11:31:25;;;;;;;3.13;1.70;;;15.10;93.70;;;;;;5105413;27;20403;-75
2021/05/23 11:33:51;;;;;;;5.43;1.10;;;15.00;93.10;;;;;;5104355;27;20487;-76
2021/05/23 11:36:18;;;;;;;9.07;1.20;;;14.90;94.00;;;;;;5098256;27;20040;-76
2021/05/23 11:38:44;;;;;;;5.78;1.38;;;14.90;94.70;;;;;;5112847;27;20020;-76
2021/05/23 11:41:09;;;;;;;2.83;0.88;;;14.90;95.80;;;;;;5106141;27;20426;-76
2021/05/23 11:43:38;;;;;;;6.68;1.50;;;15.00;95.50;;;;;;5097605;27;20034;-76
2021/05/23 11:46:06;;;;;;;2.58;1.15;;;15.00;94.90;;;;;;5095811;27;20032;-76
2021/05/23 11:48:40;;;;;;;3.08;1.40;;;15.10;95.80;;;;;;5078557;28;20028;-77
2021/05/23 11:51:12;;;;;;;2.85;1.17;;;15.20;94.50;;;;;;5096361;27;20035;-75
2021/05/23 11:53:45;;;;;;;3.10;1.10;;;15.20;94.30;;;;;;5102047;27;20082;-75
2021/05/23 11:56:15;;;;;;;4.57;1.30;;;15.10;94.70;;;;;;5102909;27;20035;-75
2021/05/23 11:58:48;;;;;;;9.27;1.70;;;15.10;94.10;;;;;;5101919;27;20046;-76
2021/05/23 12:01:30;;;;;;;6.40;1.73;;;15.10;95.00;;;;;;5106349;27;20026;-75
2021/05/23 12:03:58;;;;;;;6.40;1.35;;;15.20;94.60;;;;;;5097959;27;20024;-76
2021/05/23 12:06:24;;;;;;;4.55;1.50;;;15.30;94.60;;;;;;5112988;27;20012;-75
2021/05/23 12:08:50;;;;;;;3.97;1.50;;;15.40;95.40;;;;;;5100339;27;20024;-76
2021/05/23 12:11:15;;;;;;;2.05;1.30;;;15.40;95.30;;;;;;5109663;27;20076;-77
2021/05/23 12:13:48;;;;;;;8.15;1.70;;;15.40;95.00;;;;;;5087376;28;20020;-77
2021/05/23 12:16:17;;;;;;;3.05;1.20;;;15.40;95.80;;;;;;5105804;27;20043;-76
2021/05/23 12:18:48;;;;;;;8.00;1.75;;;15.50;94.90;;;;;;5096961;28;20520;-76
2021/05/23 12:21:18;;;;;;;;;;;15.60;95.00;;;;;;5105293;28;20051;-77
2021/05/23 12:23:46;;;;;;;8.30;2.33;;;15.80;94.20;;;;;;5114077;28;19903;-76
2021/05/23 12:26:14;;;;;;;7.30;1.88;;;15.90;92.90;;;;;;5103630;28;20077;-77
2021/05/23 12:28:45;;;;;;;2.42;1.40;;;16.10;92.20;;;;;;5098924;27;20019;-76
2021/05/23 12:31:14;;;;;;;5.78;1.75;;;16.20;92.00;;;;;;5094411;27;20069;-77
2021/05/23 12:33:46;;;;;;;3.78;1.70;;;16.30;92.30;;;;;;5094692;27;20037;-75
2021/05/23 12:36:13;;;;;;;2.17;1.63;;;16.30;92.60;;;;;;5093662;27;20076;-78
2021/05/23 12:38:53;;;;;;;4.07;1.92;;;16.30;91.30;;;;;;5096092;27;20384;-75
2021/05/23 12:41:18;;;;;;;2.20;1.70;;;16.50;92.50;;;;;;5106208;27;20028;-77
2021/05/23 12:43:44;;;;;;;4.53;1.55;;;16.60;92.10;;;;;;5097443;27;20578;-77
2021/05/23 12:46:11;;;;;;;4.78;1.70;;;16.60;91.00;;;;;;5094301;27;20039;-77